Airfield :
LOGIN :

Register | Disclaimer

   EN    FR    IT 

 










Legend :    VFR   Marginal VFR   IFR   Intensive IFR   Very Intensive IFR
Visi :
Ceiling :
>= 8 km
>= 3000ft
5 to 8 km
1000 to 3000 ft
1500m to 5 km
500 to 1000 ft
800 to 1500m
200 to 500 ft
< 800m
< 200 ft
Symbols :   Thunderstorms  Fog  Heavy snow  Heavy precipitations  Wind > 20 kt
SIGMETs :     Misc.  Thunderstorms  Icing  Turbulence  Mountain Waves  Volcanic Ashes






- Airport Elevation : 939 ft


LKKB - Kbely Air Base

CURRENT METAR :
  • 241200Z 24008KT 9999 SCT033 17/09 Q1016 NOSIG

EXPIRED METARs :
  • 241130Z 26007KT 220V300 9999 BKN031 17/10 Q1016 NOSIG
  • 241100Z 23009KT 9999 SCT029 17/10 Q1016 NOSIG
  • 241030Z 25008KT 9999 SCT025 16/10 Q1016 NOSIG
  • 241000Z 26008KT 220V290 9999 SCT022 15/10 Q1016 NOSIG
  • 240930Z 25007KT 9999 FEW020 SCT210 16/11 Q1016 NOSIG

TAF TAF LKKB
Valid from the 24 at 12:00 until the 25 at 12:00 UTC


241100Z 2412/2512 24008KT CAVOK
TEMPO 2412/2415 SCT030
BECMG 2500/2502 3000 BR SCT010
PROB30 2503/2508 0800 FG OVC003
BECMG 2508/2510 15008KT SCT025



MET'MAP, your aeronautical weather chart ! - Copyright ORBIFLY December 2007 - Disclaimer

ORBIFLY MET'MAP TEAM :

Programming & Development : Alexandra Zaïnal
Concept & original design : Baudouin d'Aumeries
Assistance for programming : Marc-Olivier Méhu
Technical & hardware support : Manuel Goepfert

Contact : metmap@orbifly.com




SOURCES & CREDITS :

   NOAA